createdAt,value
2022-11-24T00:00:27.337Z,2.75
2022-11-24T00:01:32.742Z,2.70
2022-11-24T00:02:35.344Z,3.90
2022-11-24T00:03:39.145Z,4.60
2022-11-24T00:04:42.489Z,3.53
2022-11-24T00:05:46.290Z,3.63
2022-11-24T00:06:49.632Z,3.65
2022-11-24T00:07:51.973Z,3.83
2022-11-24T00:08:56.521Z,2.63
2022-11-24T00:09:59.126Z,6.40
2022-11-24T00:11:07.838Z,5.80
2022-11-24T00:12:11.156Z,5.30
2022-11-24T00:13:13.348Z,3.22
2022-11-24T00:14:16.648Z,2.88
2022-11-24T00:15:19.210Z,4.63
2022-11-24T00:16:24.605Z,2.63
2022-11-24T00:17:27.058Z,5.07
2022-11-24T00:18:30.367Z,6.13
2022-11-24T00:19:33.684Z,4.72
2022-11-24T00:20:35.956Z,4.47
2022-11-24T00:21:40.713Z,3.42
2022-11-24T00:22:43.228Z,3.67
2022-11-24T00:23:47.073Z,3.45
2022-11-24T00:24:49.357Z,3.90
2022-11-24T00:25:52.713Z,4.40
2022-11-24T00:26:55.235Z,4.53
2022-11-24T00:27:58.665Z,6.05
2022-11-24T00:29:03.240Z,3.17
2022-11-24T00:30:07.566Z,5.53
2022-11-24T00:31:17.762Z,4.45
2022-11-24T00:32:21.381Z,5.10
2022-11-24T00:33:23.769Z,2.30
2022-11-24T00:34:27.331Z,3.40
2022-11-24T00:35:29.657Z,5.40
2022-11-24T00:36:35.441Z,2.95
2022-11-24T00:37:39.160Z,2.83
2022-11-24T00:38:42.503Z,3.75
2022-11-24T00:39:44.721Z,5.80
2022-11-24T00:40:48.097Z,6.55
2022-11-24T00:41:50.300Z,5.13
2022-11-24T00:42:53.957Z,4.75
2022-11-24T00:43:57.656Z,4.65
2022-11-24T00:45:12.910Z,6.10
2022-11-24T00:46:16.226Z,4.93
2022-11-24T00:47:19.629Z,4.80
2022-11-24T00:48:22.452Z,3.50
2022-11-24T00:49:25.790Z,3.00
2022-11-24T00:50:28.275Z,6.63
2022-11-24T00:51:31.952Z,2.85
2022-11-24T00:52:34.418Z,4.43
2022-11-24T00:53:39.346Z,5.63
2022-11-24T00:54:41.660Z,5.05
2022-11-24T00:55:45.046Z,2.42
2022-11-24T00:56:47.868Z,3.67
2022-11-24T00:57:51.396Z,4.65
2022-11-24T00:58:54.230Z,3.63
2022-11-24T00:59:57.529Z,3.88
2022-11-24T01:01:02.904Z,3.97
2022-11-24T01:02:06.333Z,2.88
2022-11-24T01:03:08.538Z,5.20
2022-11-24T01:04:11.785Z,4.50
2022-11-24T01:05:14.083Z,4.78
2022-11-24T01:06:20.033Z,3.42
2022-11-24T01:07:22.321Z,2.20
2022-11-24T01:08:25.829Z,2.20
2022-11-24T01:09:29.622Z,7.00
2022-11-24T01:10:33.567Z,4.22
2022-11-24T01:11:51.441Z,3.13
2022-11-24T01:12:54.943Z,4.50
2022-11-24T01:13:59.277Z,7.00
2022-11-24T01:15:02.974Z,4.20
2022-11-24T01:16:05.988Z,4.97
2022-11-24T01:17:09.294Z,4.65
2022-11-24T01:18:11.611Z,5.97
2022-11-24T01:19:15.007Z,4.10
2022-11-24T01:20:17.878Z,5.07
2022-11-24T01:21:21.878Z,4.47
2022-11-24T01:22:25.115Z,5.18
2022-11-24T01:23:28.497Z,3.97
2022-11-24T01:24:32.593Z,4.70
2022-11-24T01:25:36.575Z,4.22
2022-11-24T01:26:39.711Z,3.97
2022-11-24T01:27:42.960Z,4.18
2022-11-24T01:28:47.671Z,4.00
2022-11-24T01:29:51.258Z,3.67
2022-11-24T01:30:58.387Z,4.93
2022-11-24T01:32:01.871Z,3.95
2022-11-24T01:33:05.192Z,2.67
2022-11-24T01:34:08.860Z,4.30
2022-11-24T01:35:11.215Z,4.32
2022-11-24T01:36:14.882Z,6.90
2022-11-24T01:37:17.483Z,4.43
2022-11-24T01:38:21.309Z,4.70
2022-11-24T01:39:24.608Z,4.93
2022-11-24T01:40:28.178Z,4.47
2022-11-24T01:41:31.458Z,4.97
2022-11-24T01:42:53.807Z,5.97
2022-11-24T01:43:56.735Z,4.68
2022-11-24T01:45:33.486Z,5.18
2022-11-24T01:46:42.201Z,4.85
2022-11-24T01:47:45.867Z,3.28
2022-11-24T01:48:52.774Z,5.35
2022-11-24T01:50:00.139Z,5.85
2022-11-24T01:51:10.893Z,4.43
2022-11-24T01:52:20.334Z,5.45
2022-11-24T01:53:24.562Z,4.03
2022-11-24T01:54:31.945Z,2.80
2022-11-24T01:55:39.207Z,6.03
2022-11-24T01:56:46.836Z,4.80
2022-11-24T01:57:52.427Z,4.18
2022-11-24T01:58:58.767Z,3.97
2022-11-24T02:00:05.175Z,3.67
2022-11-24T02:01:09.672Z,4.78
2022-11-24T02:02:12.820Z,6.45
2022-11-24T02:03:19.488Z,4.95
2022-11-24T02:04:25.749Z,2.80
2022-11-24T02:05:34.980Z,4.47
2022-11-24T02:06:39.759Z,6.35
2022-11-24T02:07:43.258Z,4.32
2022-11-24T02:08:51.308Z,8.00
2022-11-24T02:09:57.109Z,6.15
2022-11-24T02:11:02.938Z,3.42
2022-11-24T02:12:08.277Z,5.50
2022-11-24T02:13:11.066Z,3.90
2022-11-24T02:14:17.097Z,4.47
2022-11-24T02:15:20.365Z,4.63
2022-11-24T02:16:24.069Z,4.38
2022-11-24T02:17:26.444Z,3.17
2022-11-24T02:18:30.116Z,10.93
2022-11-24T02:19:44.531Z,5.35
2022-11-24T02:20:47.942Z,5.07
2022-11-24T02:21:50.440Z,4.57
2022-11-24T02:22:58.504Z,4.90
2022-11-24T02:24:07.968Z,3.88
2022-11-24T02:25:18.225Z,6.35
2022-11-24T02:26:30.167Z,4.73
2022-11-24T02:27:33.952Z,4.78
2022-11-24T02:28:36.656Z,4.57
2022-11-24T02:29:41.480Z,3.88
2022-11-24T02:30:43.921Z,4.07
2022-11-24T02:31:50.348Z,6.22
2022-11-24T02:32:53.190Z,8.35
2022-11-24T02:33:57.430Z,3.90
2022-11-24T02:35:03.828Z,5.78
2022-11-24T02:36:07.804Z,4.20
2022-11-24T02:37:10.214Z,7.30
2022-11-24T02:38:14.611Z,3.78
2022-11-24T02:39:17.341Z,7.93
2022-11-24T02:40:25.535Z,5.78
2022-11-24T02:41:29.338Z,5.88
2022-11-24T02:42:38.508Z,6.05
2022-11-24T02:43:43.735Z,4.75
2022-11-24T02:44:52.208Z,4.75
2022-11-24T02:45:54.580Z,3.90
2022-11-24T02:47:05.885Z,5.05
2022-11-24T02:48:08.503Z,5.90
2022-11-24T02:49:11.903Z,5.30
2022-11-24T02:50:14.286Z,9.45
2022-11-24T02:51:17.880Z,8.55
2022-11-24T02:52:20.239Z,5.95
2022-11-24T02:53:23.882Z,7.25
2022-11-24T02:54:26.145Z,10.02
2022-11-24T02:55:29.793Z,12.02
2022-11-24T02:56:33.536Z,11.65
2022-11-24T02:57:36.917Z,10.15
2022-11-24T02:58:39.390Z,11.90
2022-11-24T02:59:42.886Z,9.85
2022-11-24T03:00:45.339Z,5.68
2022-11-24T03:01:48.745Z,10.75
2022-11-24T03:02:51.369Z,7.25
2022-11-24T03:03:54.789Z,3.90
2022-11-24T03:04:57.342Z,9.32
2022-11-24T03:06:00.733Z,5.45
2022-11-24T03:07:03.100Z,7.38
2022-11-24T03:08:06.616Z,8.32
2022-11-24T03:09:09.814Z,7.37
2022-11-24T03:10:13.154Z,7.38
2022-11-24T03:11:15.513Z,10.27
2022-11-24T03:12:20.229Z,7.78
2022-11-24T03:13:22.797Z,8.02
2022-11-24T03:14:26.235Z,6.03
2022-11-24T03:15:28.701Z,4.50
2022-11-24T03:16:32.561Z,3.60
2022-11-24T03:17:34.940Z,6.47
2022-11-24T03:18:38.551Z,4.85
2022-11-24T03:19:41.063Z,3.33
2022-11-24T03:20:44.391Z,3.95
2022-11-24T03:21:46.823Z,6.05
2022-11-24T03:22:50.240Z,4.07
2022-11-24T03:23:53.415Z,9.38
2022-11-24T03:24:56.866Z,6.82
2022-11-24T03:26:08.544Z,6.40
2022-11-24T03:27:12.346Z,4.85
2022-11-24T03:28:16.515Z,3.25
2022-11-24T03:29:19.933Z,3.80
2022-11-24T03:30:22.245Z,3.63
2022-11-24T03:31:26.112Z,4.03
2022-11-24T03:32:28.609Z,7.95
2022-11-24T03:33:32.558Z,4.72
2022-11-24T03:34:35.048Z,4.63
2022-11-24T03:35:38.612Z,4.82
2022-11-24T03:36:41.060Z,6.97
2022-11-24T03:37:44.626Z,5.68
2022-11-24T03:38:47.453Z,4.93
2022-11-24T03:39:50.718Z,9.23
2022-11-24T03:40:53.392Z,6.83
2022-11-24T03:41:56.687Z,3.60
2022-11-24T03:42:58.992Z,4.15
2022-11-24T03:44:04.159Z,7.07
2022-11-24T03:46:30.596Z,6.53
2022-11-24T03:47:32.960Z,8.10
2022-11-24T03:48:36.512Z,6.07
2022-11-24T03:49:39.024Z,3.38
2022-11-24T03:50:42.396Z,3.85
2022-11-24T03:51:45.954Z,4.57
2022-11-24T03:52:48.384Z,5.60
2022-11-24T03:53:52.470Z,4.00
2022-11-24T03:54:55.233Z,2.58
2022-11-24T03:55:59.497Z,3.90
2022-11-24T03:57:02.042Z,5.45
2022-11-24T03:58:05.432Z,6.18
2022-11-24T03:59:09.378Z,6.70
2022-11-24T04:00:13.591Z,8.98
2022-11-24T04:01:17.009Z,11.05
2022-11-24T04:02:20.357Z,10.47
2022-11-24T04:03:23.289Z,11.18
2022-11-24T04:04:26.709Z,9.15
2022-11-24T04:05:28.932Z,11.05
2022-11-24T04:06:32.548Z,10.00
2022-11-24T04:07:34.860Z,8.10
2022-11-24T04:08:38.104Z,15.35
2022-11-24T04:09:40.806Z,9.73
2022-11-24T04:10:44.309Z,11.98
2022-11-24T04:12:04.257Z,16.00
2022-11-24T04:13:12.403Z,15.73
2022-11-24T04:14:16.458Z,15.32
2022-11-24T04:15:21.456Z,11.00
2022-11-24T04:16:24.110Z,9.82
2022-11-24T04:17:27.390Z,6.20
2022-11-24T04:18:30.706Z,7.97
2022-11-24T04:19:32.973Z,8.75
2022-11-24T04:20:36.322Z,7.88
2022-11-24T04:21:38.473Z,8.40
2022-11-24T04:22:41.780Z,8.70
2022-11-24T04:23:43.993Z,11.87
2022-11-24T04:24:47.490Z,10.20
2022-11-24T04:25:49.853Z,10.20
2022-11-24T04:26:53.238Z,10.93
2022-11-24T04:27:56.675Z,11.18
2022-11-24T04:29:00.081Z,10.73
2022-11-24T04:30:04.847Z,8.65
2022-11-24T04:31:08.558Z,11.10
2022-11-24T04:32:11.426Z,8.77
2022-11-24T04:33:15.562Z,8.90
2022-11-24T04:34:18.012Z,7.73
2022-11-24T04:35:22.289Z,11.98
2022-11-24T04:36:24.704Z,7.28
2022-11-24T04:37:28.251Z,7.55
2022-11-24T04:39:20.106Z,9.35
2022-11-24T04:39:55.227Z,6.72
2022-11-24T04:41:01.531Z,5.22
2022-11-24T04:42:04.889Z,7.22
2022-11-24T04:43:06.997Z,7.45
2022-11-24T04:44:10.355Z,11.45
2022-11-24T04:45:15.746Z,7.73
2022-11-24T04:46:19.222Z,12.75
2022-11-24T04:47:23.420Z,6.18
2022-11-24T04:48:26.704Z,10.77
2022-11-24T04:49:29.066Z,7.10
2022-11-24T04:50:32.317Z,7.47
2022-11-24T04:51:34.459Z,6.68
2022-11-24T04:52:37.699Z,9.00
2022-11-24T04:53:40.005Z,4.57
2022-11-24T04:54:43.560Z,8.35
2022-11-24T04:55:45.811Z,6.57
2022-11-24T04:56:51.932Z,5.22
2022-11-24T04:57:54.190Z,5.43
2022-11-24T04:58:57.473Z,6.70
2022-11-24T04:59:59.649Z,3.17
2022-11-24T05:01:08.327Z,6.07
2022-11-24T05:02:10.697Z,7.65
2022-11-24T05:03:14.090Z,4.43
2022-11-24T05:04:17.546Z,6.50
2022-11-24T05:05:21.090Z,6.75
2022-11-24T05:06:23.817Z,5.33
2022-11-24T05:07:27.109Z,7.82
2022-11-24T05:08:29.487Z,6.20
2022-11-24T05:09:58.142Z,5.45
2022-11-24T05:10:55.106Z,5.13
2022-11-24T05:11:58.522Z,5.55
2022-11-24T05:13:01.102Z,6.25
2022-11-24T05:14:04.756Z,4.13
2022-11-24T05:15:08.437Z,4.93
2022-11-24T05:16:13.946Z,5.68
2022-11-24T05:17:16.266Z,6.17
2022-11-24T05:18:19.624Z,5.68
2022-11-24T05:19:21.928Z,6.85
2022-11-24T05:20:26.233Z,6.05
2022-11-24T05:21:28.803Z,5.00
2022-11-24T05:22:32.957Z,5.97
2022-11-24T05:23:36.283Z,5.78
2022-11-24T05:24:39.765Z,3.83
2022-11-24T05:25:47.444Z,3.90
2022-11-24T05:26:51.161Z,6.05
2022-11-24T05:27:53.570Z,3.27
2022-11-24T05:28:56.898Z,8.38
2022-11-24T05:29:59.229Z,4.68
2022-11-24T05:31:03.282Z,5.25
2022-11-24T05:32:07.548Z,4.22
2022-11-24T05:33:17.213Z,3.80
2022-11-24T05:34:19.803Z,3.15
2022-11-24T05:35:23.532Z,5.25
2022-11-24T05:36:44.267Z,6.47
2022-11-24T05:37:47.757Z,3.45
2022-11-24T05:38:50.009Z,4.27
2022-11-24T05:39:54.714Z,4.55
2022-11-24T05:41:01.143Z,5.55
2022-11-24T05:42:26.141Z,7.32
2022-11-24T05:43:28.453Z,5.53
2022-11-24T05:44:32.100Z,5.65
2022-11-24T05:45:34.649Z,4.80
2022-11-24T05:46:38.406Z,4.85
2022-11-24T05:47:42.552Z,3.53
2022-11-24T05:48:45.931Z,7.28
2022-11-24T05:49:48.468Z,6.23
2022-11-24T05:50:55.889Z,5.40
2022-11-24T05:51:58.135Z,6.55
2022-11-24T05:53:04.188Z,3.40
2022-11-24T05:54:06.711Z,6.07
2022-11-24T05:55:12.095Z,6.65
2022-11-24T05:56:14.475Z,6.45
2022-11-24T05:57:18.302Z,3.38
2022-11-24T05:58:22.000Z,5.03
2022-11-24T05:59:24.748Z,6.32
2022-11-24T06:00:29.071Z,4.47
2022-11-24T06:01:31.405Z,5.65
2022-11-24T06:02:34.839Z,6.47
2022-11-24T06:03:38.584Z,7.40
2022-11-24T06:04:41.986Z,6.88
2022-11-24T06:05:48.704Z,5.55
2022-11-24T06:06:51.197Z,4.53
2022-11-24T06:07:55.184Z,7.35
2022-11-24T06:08:57.953Z,4.50
2022-11-24T06:10:01.700Z,7.63
2022-11-24T06:11:17.415Z,4.37
2022-11-24T06:12:21.350Z,6.75
2022-11-24T06:13:23.792Z,4.82
2022-11-24T06:14:27.379Z,5.97
2022-11-24T06:15:30.860Z,4.88
2022-11-24T06:16:33.689Z,6.50
2022-11-24T06:17:37.132Z,8.35
2022-11-24T06:18:41.080Z,6.07
2022-11-24T06:19:47.952Z,5.47
2022-11-24T06:21:09.811Z,5.97
2022-11-24T06:22:13.309Z,7.33
2022-11-24T06:23:16.576Z,6.78
2022-11-24T06:24:18.809Z,6.70
2022-11-24T06:25:22.182Z,7.72
2022-11-24T06:26:24.683Z,6.32
2022-11-24T06:27:27.937Z,3.47
2022-11-24T06:28:30.169Z,4.57
2022-11-24T06:29:33.354Z,7.10
2022-11-24T06:30:35.541Z,9.30
2022-11-24T06:31:38.868Z,4.70
2022-11-24T06:32:49.159Z,6.13
2022-11-24T06:33:54.740Z,5.47
2022-11-24T06:34:58.277Z,6.20
2022-11-24T06:36:04.925Z,8.15
2022-11-24T06:37:08.237Z,5.75
2022-11-24T06:38:11.185Z,4.38
2022-11-24T06:39:14.526Z,5.20
2022-11-24T06:40:17.329Z,5.88
2022-11-24T06:41:21.440Z,6.47
2022-11-24T06:42:23.780Z,8.32
2022-11-24T06:43:28.020Z,5.03
2022-11-24T06:44:31.650Z,9.90
2022-11-24T06:45:34.024Z,4.68
2022-11-24T06:46:37.373Z,5.38
2022-11-24T06:47:39.606Z,5.70
2022-11-24T06:48:42.821Z,8.02
2022-11-24T06:49:46.383Z,4.85
2022-11-24T06:50:49.588Z,9.38
2022-11-24T06:51:51.723Z,6.03
2022-11-24T06:52:56.208Z,5.85
2022-11-24T06:53:58.384Z,5.27
2022-11-24T06:55:01.754Z,9.65
2022-11-24T06:56:06.704Z,6.80
2022-11-24T06:57:11.738Z,4.50
2022-11-24T06:58:14.135Z,5.47
2022-11-24T06:59:19.258Z,5.65
2022-11-24T07:00:21.976Z,9.73
2022-11-24T07:01:27.092Z,6.95
2022-11-24T07:02:30.368Z,4.68
2022-11-24T07:03:32.597Z,6.43
2022-11-24T07:04:36.517Z,7.30
2022-11-24T07:05:40.434Z,7.38
2022-11-24T07:06:44.440Z,7.07
2022-11-24T07:07:46.585Z,6.00
2022-11-24T07:08:50.032Z,5.50
2022-11-24T07:09:53.282Z,10.50
2022-11-24T07:10:55.445Z,5.80
2022-11-24T07:11:58.703Z,6.55
2022-11-24T07:13:04.044Z,7.72
2022-11-24T07:14:07.809Z,4.93
2022-11-24T07:15:11.872Z,4.20
2022-11-24T07:16:15.772Z,8.05
2022-11-24T07:17:19.062Z,5.53
2022-11-24T07:18:21.332Z,6.78
2022-11-24T07:19:25.357Z,10.93
2022-11-24T07:20:27.689Z,5.88
2022-11-24T07:21:32.862Z,5.00
2022-11-24T07:22:35.738Z,10.88
2022-11-24T07:23:39.506Z,7.80
2022-11-24T07:24:42.953Z,10.02
2022-11-24T07:25:45.171Z,7.13
2022-11-24T07:26:48.521Z,7.82
2022-11-24T07:27:55.488Z,10.00
2022-11-24T07:28:58.752Z,8.63
2022-11-24T07:30:02.118Z,4.57
2022-11-24T07:31:06.343Z,8.43
2022-11-24T07:32:09.699Z,7.40
2022-11-24T07:33:13.171Z,9.98
2022-11-24T07:34:16.464Z,10.38
2022-11-24T07:35:18.771Z,8.32
2022-11-24T07:36:22.718Z,7.80
2022-11-24T07:37:31.229Z,6.93
2022-11-24T07:38:35.574Z,8.70
2022-11-24T07:39:38.879Z,7.20
2022-11-24T07:40:41.130Z,8.55
2022-11-24T07:41:44.483Z,11.98
2022-11-24T07:42:46.669Z,11.00
2022-11-24T07:43:50.740Z,10.00
2022-11-24T07:44:53.037Z,6.70
2022-11-24T07:45:56.432Z,10.75
2022-11-24T07:46:59.729Z,12.17
2022-11-24T07:48:03.097Z,4.95
2022-11-24T07:49:05.456Z,9.90
2022-11-24T07:50:10.837Z,8.60
2022-11-24T07:51:14.135Z,9.05
2022-11-24T07:52:16.387Z,7.15
2022-11-24T07:53:21.561Z,10.93
2022-11-24T07:54:24.825Z,12.98
2022-11-24T07:55:26.942Z,9.18
2022-11-24T07:56:30.187Z,9.77
2022-11-24T07:57:32.439Z,11.70
2022-11-24T07:58:37.626Z,11.77
2022-11-24T07:59:39.825Z,10.60
2022-11-24T08:00:43.056Z,8.63
2022-11-24T08:01:46.960Z,7.65
2022-11-24T08:02:49.316Z,14.55
2022-11-24T08:03:52.645Z,10.68
2022-11-24T08:04:55.314Z,10.30
2022-11-24T08:06:23.237Z,14.13
2022-11-24T08:07:23.558Z,12.90
2022-11-24T08:08:33.306Z,11.03
2022-11-24T08:09:36.649Z,9.68
2022-11-24T08:10:40.261Z,14.57
2022-11-24T08:11:43.488Z,9.23
2022-11-24T08:12:46.726Z,13.70
2022-11-24T08:13:49.922Z,13.05
2022-11-24T08:14:52.150Z,12.45
2022-11-24T08:15:55.351Z,12.93
2022-11-24T08:16:59.339Z,12.57
2022-11-24T08:18:02.676Z,14.63
2022-11-24T08:19:06.198Z,10.53
2022-11-24T08:20:10.282Z,9.48
2022-11-24T08:21:15.167Z,13.73
2022-11-24T08:22:17.535Z,12.52
2022-11-24T08:23:20.868Z,8.35
2022-11-24T08:24:25.993Z,10.13
2022-11-24T08:25:32.237Z,7.85
2022-11-24T08:26:35.496Z,11.98
2022-11-24T08:27:38.440Z,10.95
2022-11-24T08:28:42.166Z,11.48
2022-11-24T08:29:45.528Z,13.87
2022-11-24T08:30:47.775Z,12.00
2022-11-24T08:31:50.989Z,12.52
2022-11-24T08:32:53.401Z,9.38
2022-11-24T08:33:56.957Z,10.90
2022-11-24T08:35:13.355Z,10.40
2022-11-24T08:36:18.178Z,9.80
2022-11-24T08:37:21.398Z,12.15
2022-11-24T08:38:23.595Z,15.75
2022-11-24T08:39:28.950Z,12.35
2022-11-24T08:40:32.319Z,9.93
2022-11-24T08:41:34.579Z,8.45
2022-11-24T08:42:37.836Z,14.20
2022-11-24T08:43:40.739Z,14.93
2022-11-24T08:44:44.440Z,9.15
2022-11-24T08:45:46.692Z,12.00
2022-11-24T08:46:50.120Z,16.58
2022-11-24T08:47:54.144Z,13.32
2022-11-24T08:48:57.689Z,13.20
2022-11-24T08:50:00.175Z,9.40
2022-11-24T08:51:08.618Z,10.07
2022-11-24T08:52:12.005Z,9.38
2022-11-24T08:53:14.251Z,9.52
2022-11-24T08:54:18.882Z,12.45
2022-11-24T08:55:22.682Z,10.18
2022-11-24T08:56:27.018Z,12.05
2022-11-24T08:57:30.383Z,12.65
2022-11-24T08:58:33.192Z,8.88
2022-11-24T08:59:36.554Z,9.75
2022-11-24T09:00:38.942Z,9.30
2022-11-24T09:01:43.167Z,10.87
2022-11-24T09:02:45.316Z,12.98
2022-11-24T09:03:51.376Z,10.75
2022-11-24T09:04:54.833Z,19.40
2022-11-24T09:05:57.000Z,8.43
2022-11-24T09:07:00.483Z,12.45
2022-11-24T09:08:02.634Z,6.80
2022-11-24T09:09:06.140Z,12.23
2022-11-24T09:10:09.321Z,11.75
2022-11-24T09:11:15.743Z,14.20
2022-11-24T09:12:19.130Z,11.87
2022-11-24T09:13:21.276Z,9.25
2022-11-24T09:14:24.548Z,9.93
2022-11-24T09:15:27.826Z,12.77
2022-11-24T09:16:31.524Z,14.40
2022-11-24T09:17:35.394Z,12.70
2022-11-24T09:18:39.259Z,12.27
2022-11-24T09:19:42.611Z,9.13
2022-11-24T09:20:45.368Z,14.75
2022-11-24T09:21:49.063Z,10.20
2022-11-24T09:22:52.363Z,14.90
2022-11-24T09:23:56.412Z,12.68
2022-11-24T09:24:58.797Z,11.93
2022-11-24T09:26:05.942Z,13.90
2022-11-24T09:27:10.873Z,11.25
2022-11-24T09:28:14.207Z,13.02
2022-11-24T09:29:17.559Z,10.43
2022-11-24T09:30:20.469Z,12.32
2022-11-24T09:31:25.957Z,14.55
2022-11-24T09:32:30.649Z,18.98
2022-11-24T09:33:33.893Z,12.73
2022-11-24T09:34:37.254Z,11.98
2022-11-24T09:35:39.479Z,15.25
2022-11-24T09:36:43.407Z,11.93
2022-11-24T09:37:48.441Z,11.77
2022-11-24T09:38:50.703Z,12.18
2022-11-24T09:39:54.037Z,9.13
2022-11-24T09:40:56.727Z,9.70
2022-11-24T09:42:08.964Z,17.70
2022-11-24T09:43:24.664Z,13.38
2022-11-24T09:45:10.777Z,10.97
2022-11-24T09:46:21.646Z,10.15
2022-11-24T09:47:36.555Z,7.93
2022-11-24T09:48:43.815Z,13.85
2022-11-24T09:49:55.550Z,12.13
2022-11-24T09:51:02.062Z,14.30
2022-11-24T09:52:10.133Z,15.13
2022-11-24T09:53:20.225Z,11.32
2022-11-24T09:54:27.755Z,10.82
2022-11-24T09:55:39.167Z,16.75
2022-11-24T09:56:43.750Z,11.17
2022-11-24T09:57:52.710Z,11.85
2022-11-24T09:59:02.946Z,16.77
2022-11-24T10:00:14.572Z,9.52
2022-11-24T10:01:19.905Z,11.32
2022-11-24T10:02:23.709Z,13.27
2022-11-24T10:03:32.306Z,12.80
2022-11-24T10:04:40.991Z,13.95
2022-11-24T10:05:43.691Z,12.35
2022-11-24T10:06:51.562Z,9.52
2022-11-24T10:08:04.909Z,15.53
2022-11-24T10:09:15.743Z,11.88
2022-11-24T10:10:25.258Z,12.95
2022-11-24T10:11:38.170Z,16.00
2022-11-24T10:12:56.710Z,10.75
2022-11-24T10:14:43.482Z,15.70
2022-11-24T10:15:54.697Z,12.10
2022-11-24T10:17:08.135Z,14.85
2022-11-24T10:18:36.201Z,10.98
2022-11-24T10:19:48.277Z,13.02
2022-11-24T10:21:00.531Z,12.30
2022-11-24T10:22:17.573Z,11.45
2022-11-24T10:23:39.439Z,12.55
2022-11-24T10:25:13.679Z,10.57
2022-11-24T10:26:20.752Z,9.85
2022-11-24T10:27:28.768Z,14.57
2022-11-24T10:28:41.040Z,16.77
2022-11-24T10:29:50.053Z,13.38
2022-11-24T10:30:53.472Z,16.27
2022-11-24T10:31:58.374Z,8.48
2022-11-24T10:33:07.582Z,10.47
2022-11-24T10:34:14.921Z,14.70
2022-11-24T10:35:21.808Z,22.98
2022-11-24T10:36:37.239Z,14.35
2022-11-24T10:37:48.320Z,14.32
2022-11-24T10:39:00.273Z,17.95
2022-11-24T10:40:33.024Z,12.95
2022-11-24T10:41:43.621Z,10.93
2022-11-24T10:42:49.010Z,13.00
2022-11-24T10:43:52.708Z,13.13
2022-11-24T10:45:05.519Z,21.00
2022-11-24T10:46:16.228Z,15.45
2022-11-24T10:47:20.070Z,15.40
2022-11-24T10:48:28.587Z,18.42
2022-11-24T10:49:33.953Z,15.45
2022-11-24T10:50:40.159Z,12.98
2022-11-24T10:51:53.186Z,10.57
2022-11-24T10:53:08.349Z,16.23
2022-11-24T10:54:17.096Z,11.05
2022-11-24T10:55:21.743Z,9.13
2022-11-24T10:56:25.308Z,18.87
2022-11-24T10:57:31.064Z,13.48
2022-11-24T10:58:38.258Z,11.38
2022-11-24T10:59:42.035Z,15.63
2022-11-24T11:00:45.704Z,9.70
2022-11-24T11:01:50.010Z,14.45
2022-11-24T11:03:13.673Z,15.05
2022-11-24T11:04:20.137Z,15.60
2022-11-24T11:05:42.087Z,14.30
2022-11-24T11:06:45.823Z,12.20
2022-11-24T11:07:49.647Z,10.77
2022-11-24T11:09:19.406Z,13.73
2022-11-24T11:10:24.568Z,12.77
2022-11-24T11:11:29.718Z,21.85
2022-11-24T11:12:44.025Z,17.63
2022-11-24T11:14:02.920Z,11.07
2022-11-24T11:15:24.406Z,14.15
2022-11-24T11:16:35.009Z,16.55
2022-11-24T11:17:39.167Z,13.25
2022-11-24T11:18:50.307Z,12.07
2022-11-24T11:20:02.063Z,11.13
2022-11-24T11:21:07.176Z,16.52
2022-11-24T11:22:21.187Z,14.35
2022-11-24T11:23:29.239Z,9.25
2022-11-24T11:24:31.651Z,8.75
2022-11-24T11:25:38.372Z,12.93
2022-11-24T11:26:42.531Z,19.83
2022-11-24T11:27:45.800Z,15.02
2022-11-24T11:31:15.621Z,11.38
2022-11-24T11:34:56.721Z,16.70
2022-11-24T11:36:03.214Z,14.55
2022-11-24T11:37:06.904Z,17.05
2022-11-24T11:38:12.576Z,20.48
2022-11-24T11:39:27.354Z,17.38
2022-11-24T11:40:33.099Z,16.15
2022-11-24T11:41:42.133Z,11.90
2022-11-24T11:43:05.480Z,12.60
2022-11-24T11:44:22.983Z,18.03
2022-11-24T11:45:30.199Z,15.68
2022-11-24T11:46:35.042Z,16.55
2022-11-24T11:47:45.753Z,17.48
2022-11-24T11:48:48.414Z,15.25
2022-11-24T11:49:52.504Z,15.13
2022-11-24T11:52:42.917Z,16.67
2022-11-24T11:53:55.082Z,9.30
2022-11-24T11:55:39.022Z,12.65
2022-11-24T11:56:46.107Z,15.60
2022-11-24T11:57:57.825Z,12.23
2022-11-24T11:59:25.534Z,15.73
2022-11-24T12:00:31.134Z,17.65
2022-11-24T12:01:57.316Z,17.30
2022-11-24T12:03:20.763Z,15.70
2022-11-24T12:04:36.619Z,17.95
2022-11-24T12:05:52.396Z,11.93
2022-11-24T12:07:13.322Z,12.80
2022-11-24T12:08:26.889Z,15.52
2022-11-24T12:09:42.480Z,10.30
2022-11-24T12:10:51.227Z,15.07
2022-11-24T12:12:07.577Z,16.98
2022-11-24T12:13:33.187Z,13.52
2022-11-24T12:14:45.660Z,10.90
2022-11-24T12:15:51.846Z,9.35
2022-11-24T12:17:03.333Z,15.38
2022-11-24T12:18:55.180Z,17.30
2022-11-24T12:19:57.344Z,14.07
2022-11-24T12:21:09.023Z,13.98
2022-11-24T12:22:24.681Z,17.23
2022-11-24T12:23:39.915Z,11.55
2022-11-24T12:24:51.550Z,11.40
2022-11-24T12:25:59.585Z,17.00
2022-11-24T12:27:06.909Z,23.00
2022-11-24T12:28:25.168Z,16.55
2022-11-24T12:30:03.766Z,12.63
2022-11-24T12:31:08.512Z,15.50
2022-11-24T12:32:28.571Z,15.20
2022-11-24T12:33:57.895Z,10.75
2022-11-24T12:35:18.007Z,14.37
2022-11-24T12:36:33.875Z,21.20
2022-11-24T12:37:52.828Z,18.95
2022-11-24T12:39:04.096Z,10.70
2022-11-24T12:40:16.013Z,11.77
2022-11-24T12:41:45.744Z,13.88
2022-11-24T12:43:00.593Z,15.20
2022-11-24T12:44:05.894Z,15.90
2022-11-24T12:45:15.770Z,15.68
2022-11-24T12:46:25.166Z,13.02
2022-11-24T12:47:38.034Z,17.73
2022-11-24T12:48:54.400Z,12.13
2022-11-24T12:50:08.491Z,14.73
2022-11-24T12:51:17.479Z,15.48
2022-11-24T12:52:25.204Z,16.15
2022-11-24T12:53:32.784Z,19.63
2022-11-24T12:54:39.603Z,13.32
2022-11-24T12:55:44.298Z,16.30
2022-11-24T12:56:57.475Z,17.27
2022-11-24T12:58:11.241Z,22.42
2022-11-24T12:59:25.748Z,13.63
2022-11-24T13:00:35.983Z,18.83
2022-11-24T13:01:44.786Z,16.60
2022-11-24T13:03:01.530Z,14.82
2022-11-24T13:04:17.294Z,16.95
2022-11-24T13:05:26.526Z,14.75
2022-11-24T13:06:49.325Z,16.10
2022-11-24T13:07:59.118Z,15.05
2022-11-24T13:09:09.288Z,13.10
2022-11-24T13:10:55.737Z,16.30
2022-11-24T13:12:12.924Z,19.27
2022-11-24T13:13:16.933Z,9.88
2022-11-24T13:14:23.817Z,13.30
2022-11-24T13:15:45.285Z,17.13
2022-11-24T13:18:48.574Z,18.23
2022-11-24T13:19:53.709Z,12.63
2022-11-24T13:20:56.024Z,18.48
2022-11-24T13:22:17.576Z,18.20
2022-11-24T13:23:28.149Z,18.42
2022-11-24T13:24:34.056Z,16.87
2022-11-24T13:25:38.064Z,21.02
2022-11-24T13:26:47.387Z,16.73
2022-11-24T13:27:53.584Z,13.63
2022-11-24T13:29:08.884Z,17.02
2022-11-24T13:30:50.160Z,22.70
2022-11-24T13:31:53.680Z,13.32
2022-11-24T13:33:01.827Z,16.73
2022-11-24T13:34:54.887Z,16.30
2022-11-24T13:36:52.892Z,18.67
2022-11-24T13:37:55.240Z,17.00
2022-11-24T13:38:59.183Z,19.45
2022-11-24T13:40:05.027Z,19.08
2022-11-24T13:41:27.605Z,12.13
2022-11-24T13:42:42.174Z,23.70
2022-11-24T13:44:21.625Z,17.30
2022-11-24T13:45:50.490Z,15.65
2022-11-24T13:47:05.665Z,13.45
2022-11-24T13:49:01.281Z,17.02
2022-11-24T13:50:05.655Z,16.83
2022-11-24T13:51:23.637Z,13.60
2022-11-24T13:53:01.226Z,25.33
2022-11-24T13:54:04.587Z,21.02
2022-11-24T13:55:26.235Z,18.73
2022-11-24T13:56:32.412Z,13.75
2022-11-24T13:57:35.811Z,18.10
2022-11-24T13:58:40.570Z,15.35
2022-11-24T13:59:43.071Z,15.05
2022-11-24T14:01:05.458Z,15.70
2022-11-24T14:02:23.643Z,16.17
2022-11-24T14:03:30.802Z,20.87
2022-11-24T14:04:35.865Z,19.35
2022-11-24T14:05:47.075Z,20.27
2022-11-24T14:07:01.191Z,13.98
2022-11-24T14:08:21.403Z,19.98
2022-11-24T14:09:29.508Z,16.45
2022-11-24T14:10:36.037Z,14.10
2022-11-24T14:11:39.568Z,19.80
2022-11-24T14:12:43.867Z,17.83
2022-11-24T14:13:46.081Z,13.35
2022-11-24T14:14:50.752Z,17.13
2022-11-24T14:16:02.593Z,16.10
2022-11-24T14:17:16.174Z,22.20
2022-11-24T14:18:23.210Z,20.75
2022-11-24T14:19:30.885Z,14.60
2022-11-24T14:20:35.488Z,14.75
2022-11-24T14:21:41.788Z,18.20
2022-11-24T14:22:44.291Z,15.35
2022-11-24T14:23:51.981Z,13.98
2022-11-24T14:24:57.293Z,15.50
2022-11-24T14:26:00.592Z,14.57
2022-11-24T14:27:03.987Z,19.30
2022-11-24T14:28:21.158Z,21.48
2022-11-24T14:29:28.060Z,14.15
2022-11-24T14:30:31.346Z,16.08
2022-11-24T14:31:33.959Z,23.02
2022-11-24T14:32:37.926Z,19.23
2022-11-24T14:33:40.162Z,20.02
2022-11-24T14:34:43.794Z,18.48
2022-11-24T14:35:47.828Z,11.60
2022-11-24T14:36:52.230Z,17.57
2022-11-24T14:37:55.770Z,16.17
2022-11-24T14:38:59.393Z,17.80
2022-11-24T14:40:02.631Z,15.82
2022-11-24T14:41:16.553Z,10.45
2022-11-24T14:42:22.279Z,17.50
2022-11-24T14:43:30.104Z,18.38
2022-11-24T14:44:36.684Z,12.63